Main page
METAR-TAF:

METAR-TAF

Airports :

Valencia Airport

Valencia, Spain

latitude: 39-30N, longitude: 000-28W, elevation: 69 m

Current weather observation

The report was made 40 minutes ago, at 02:30 UTC
Wind 14 kt from the West/Southwest
Temperature 12°C
Humidity 67%
Pressure 1018 hPa
Visibility 10 km or more
no clouds below 1500 m and no cumulonimbus

METAR: LEVC 260230Z 24014KT CAVOK 12/06 Q1018 NOSIG

Time: 05:10 (03:10 UTC)

Forecast

The report was made 4 hours and 10 minutes ago, at 23:00 UTC
Forecast valid from 26 at 00 UTC to 26 at 24 UTC
Wind 8 kt from the West/Southwest
Visibility 10 km or more
Few clouds at a height of 2000 ft
Temporary
from 26 at 08 UTC to 26 at 11 UTC
Wind 12 kt from the West/Northwest with gusts up to 24 kt
Becoming
from 26 at 13 UTC to 26 at 15 UTC
Wind 12 kt from the East

TAF: LEVC 252300Z 2600/2624 25008KT 9999 FEW020 TX22/2612Z TN10/2606Z TEMPO 2608/2611 30012G24KT BECMG 2613/2615 08012KT

Weather observations and forecasts of more than 4000 airports (METAR and TAF reports).

The available stations are represented by yellow and red dots on the map.

Hover mouse over dot to see the name of the station.

Then click to see weather observations and forecasts.

To change the map : click on the green buttons with a black cross to zoom in, on the green button with a dash to zoom out, or on the green arrows for adjacent maps.


METAR-TAF: